Time;durP1;ratioP1;P1;durP2;ratioP2;P2;SDS_P1;SDS_P2;PMS_P1;PMS_P2;Temp;Humidity;BMP_temperature;BMP_pressure;BME280_temperature;BME280_humidity;BME280_pressure;Samples;Min_cycle;Max_cycle;Signal;HPM_P1;HPM_P2
2023/07/05 00:01:49;;;;;;;1.80;0.80;;;20.00;99.90;;;;;;5046586;28;20032;-71
2023/07/05 00:04:14;;;;;;;2.28;0.90;;;20.20;99.90;;;;;;5031086;28;20064;-71
2023/07/05 00:06:40;;;;;;;2.67;1.83;;;20.30;99.90;;;;;;5050465;28;20037;-71
2023/07/05 00:09:06;;;;;;;2.50;0.70;;;20.30;99.90;;;;;;5047257;28;20489;-71
2023/07/05 00:11:32;;;;;;;2.30;1.13;;;20.30;99.90;;;;;;5040904;28;20048;-72
2023/07/05 00:13:58;;;;;;;1.35;0.73;;;20.40;99.90;;;;;;5048446;28;20029;-72
2023/07/05 00:16:24;;;;;;;1.17;0.82;;;20.50;99.90;;;;;;5050484;28;20458;-71
2023/07/05 00:18:49;;;;;;;2.15;0.70;;;20.50;99.90;;;;;;5048188;28;20108;-72
2023/07/05 00:21:15;;;;;;;1.77;1.05;;;20.30;99.90;;;;;;5050040;28;20061;-72
2023/07/05 00:23:46;;;;;;;1.90;0.93;;;20.20;99.90;;;;;;5048892;28;20107;-71
2023/07/05 00:26:13;;;;;;;;;;;20.00;99.90;;;;;;5040718;28;20036;-72
2023/07/05 00:28:39;;;;;;;2.60;1.00;;;19.90;99.90;;;;;;5048905;28;20007;-71
2023/07/05 00:31:05;;;;;;;2.25;1.02;;;20.00;99.90;;;;;;5048833;28;20037;-74
2023/07/05 00:33:33;;;;;;;2.78;1.33;;;19.70;99.90;;;;;;5050064;28;20037;-74
2023/07/05 00:36:00;;;;;;;3.08;1.40;;;19.30;99.90;;;;;;5041528;28;20032;-73
2023/07/05 00:38:26;;;;;;;1.52;0.73;;;18.90;99.90;;;;;;5050204;28;20503;-73
2023/07/05 00:40:52;;;;;;;1.90;0.85;;;18.70;99.90;;;;;;5041556;28;20041;-73
2023/07/05 00:43:19;;;;;;;3.38;0.88;;;18.60;99.90;;;;;;5049930;28;20044;-73
2023/07/05 00:45:56;;;;;;;1.35;0.82;;;18.50;99.90;;;;;;5048806;28;20047;-73
2023/07/05 00:48:53;;;;;;;2.67;1.13;;;18.60;99.90;;;;;;5050294;28;20496;-74
2023/07/05 00:51:42;;;;;;;2.47;1.13;;;18.50;99.90;;;;;;5009975;28;20036;-73
2023/07/05 00:54:09;;;;;;;4.10;1.13;;;18.30;99.90;;;;;;5048558;28;20037;-74
2023/07/05 00:57:04;;;;;;;3.17;1.30;;;18.10;99.90;;;;;;5050153;28;20093;-73
2023/07/05 00:59:39;;;;;;;3.53;1.13;;;18.00;99.90;;;;;;5047090;28;20025;-73
2023/07/05 01:02:05;;;;;;;7.93;1.08;;;17.80;99.90;;;;;;5044439;28;20133;-73
2023/07/05 01:04:33;;;;;;;2.58;1.20;;;17.80;99.90;;;;;;5045832;28;20543;-73
2023/07/05 01:06:59;;;;;;;4.13;1.17;;;17.70;99.90;;;;;;5026985;28;20389;-73
2023/07/05 01:09:26;;;;;;;4.32;1.35;;;17.70;99.90;;;;;;5051567;28;20496;-74
2023/07/05 01:12:03;;;;;;;2.05;0.80;;;17.70;99.90;;;;;;5042772;28;20033;-73
2023/07/05 01:15:07;;;;;;;2.58;1.30;;;17.70;99.90;;;;;;5052093;28;20037;-72
2023/07/05 01:18:13;;;;;;;1.70;1.02;;;17.70;99.90;;;;;;5045958;28;20090;-73
2023/07/05 01:21:09;;;;;;;5.10;1.48;;;17.70;99.90;;;;;;5052030;28;20036;-73
2023/07/05 01:24:00;;;;;;;4.38;1.40;;;17.70;99.90;;;;;;5037734;28;20025;-73
2023/07/05 01:26:36;;;;;;;;;;;17.70;99.90;;;;;;5007932;28;20029;-74
2023/07/05 01:29:59;;;;;;;1.65;0.60;;;17.70;99.90;;;;;;5051355;28;19928;-73
2023/07/05 01:32:36;;;;;;;2.40;1.35;;;17.70;99.90;;;;;;5042770;28;20476;-73
2023/07/05 01:35:25;;;;;;;3.25;1.48;;;17.70;99.90;;;;;;5049432;28;20110;-73
2023/07/05 01:37:51;;;;;;;2.90;1.52;;;17.70;99.90;;;;;;5048588;28;20579;-73
2023/07/05 01:40:25;;;;;;;2.05;1.33;;;17.80;99.90;;;;;;5049090;28;20029;-73
2023/07/05 01:42:57;;;;;;;9.90;1.70;;;17.80;99.90;;;;;;5049415;28;20033;-73
2023/07/05 01:45:45;;;;;;;4.80;1.75;;;17.80;99.90;;;;;;5042832;28;20130;-73
2023/07/05 01:48:34;;;;;;;3.92;2.05;;;17.80;99.90;;;;;;5051218;28;20027;-73
2023/07/05 01:51:32;;;;;;;2.60;1.50;;;17.70;99.90;;;;;;5051668;28;20494;-72
2023/07/05 01:54:39;;;;;;;4.95;1.75;;;17.70;99.90;;;;;;5034762;28;20121;-74
2023/07/05 01:57:17;;;;;;;2.70;1.40;;;17.70;99.90;;;;;;5025790;28;20115;-73
2023/07/05 02:00:10;;;;;;;2.83;1.45;;;17.70;99.90;;;;;;5044418;28;20037;-72
2023/07/05 02:02:45;;;;;;;3.75;1.73;;;17.60;99.90;;;;;;5047355;28;20431;-73
2023/07/05 02:05:11;;;;;;;4.35;1.83;;;17.70;99.90;;;;;;5049624;28;20040;-71
2023/07/05 02:07:37;;;;;;;4.50;1.58;;;17.70;99.90;;;;;;5046516;28;20029;-72
2023/07/05 02:10:04;;;;;;;5.05;1.80;;;17.60;99.90;;;;;;5049115;28;20462;-72
2023/07/05 02:12:29;;;;;;;6.07;1.27;;;17.60;99.90;;;;;;5051793;28;20079;-72
2023/07/05 02:14:56;;;;;;;3.25;1.77;;;17.60;99.90;;;;;;5045177;28;20029;-72
2023/07/05 02:17:23;;;;;;;3.25;1.90;;;17.60;99.90;;;;;;5052611;28;20033;-72
2023/07/05 02:19:49;;;;;;;3.67;1.50;;;17.50;99.90;;;;;;5051168;28;20090;-73
2023/07/05 02:22:14;;;;;;;4.18;1.60;;;17.50;99.90;;;;;;5052068;28;20029;-73
2023/07/05 02:24:40;;;;;;;2.88;1.17;;;17.50;99.90;;;;;;5050348;28;20033;-72
2023/07/05 02:27:06;;;;;;;2.90;1.23;;;17.50;99.90;;;;;;5052279;28;20037;-72
2023/07/05 02:29:32;;;;;;;2.45;1.45;;;17.50;99.90;;;;;;5048137;28;20480;-73
2023/07/05 02:31:59;;;;;;;2.70;1.45;;;17.40;99.90;;;;;;5051835;28;20519;-73
2023/07/05 02:34:24;;;;;;;2.58;1.17;;;17.40;99.90;;;;;;5050393;28;20020;-73
2023/07/05 02:36:50;;;;;;;3.03;1.40;;;17.40;99.90;;;;;;5051966;28;20029;-73
2023/07/05 02:39:17;;;;;;;3.08;1.10;;;17.40;99.90;;;;;;5050454;28;20029;-74
2023/07/05 02:41:42;;;;;;;4.15;1.10;;;17.40;99.90;;;;;;5058942;28;20553;-73
2023/07/05 02:44:08;;;;;;;1.80;0.98;;;17.30;99.90;;;;;;5049760;28;20112;-73
2023/07/05 02:46:35;;;;;;;2.05;1.13;;;17.30;99.90;;;;;;5051845;28;20432;-73
2023/07/05 02:49:03;;;;;;;2.47;1.10;;;17.30;99.90;;;;;;5050466;28;20025;-73
2023/07/05 02:51:29;;;;;;;2.35;0.77;;;17.30;99.90;;;;;;5041935;28;20094;-73
2023/07/05 02:53:55;;;;;;;2.50;1.10;;;17.30;99.90;;;;;;5049920;28;20115;-74
2023/07/05 02:56:21;;;;;;;5.88;1.20;;;17.30;99.90;;;;;;5051781;28;20472;-74
2023/07/05 02:58:47;;;;;;;2.60;1.08;;;17.20;99.90;;;;;;5050756;28;20487;-74
2023/07/05 03:01:13;;;;;;;2.13;0.93;;;17.20;99.90;;;;;;5051333;28;20041;-74
2023/07/05 03:03:39;;;;;;;4.75;1.10;;;17.20;99.90;;;;;;5051172;28;20033;-74
2023/07/05 03:06:05;;;;;;;1.23;0.88;;;17.20;99.90;;;;;;5050190;28;20087;-74
2023/07/05 03:08:31;;;;;;;4.50;1.10;;;17.10;99.90;;;;;;5051395;28;20040;-74
2023/07/05 03:10:58;;;;;;;1.52;0.88;;;17.10;99.90;;;;;;5042066;28;20037;-74
2023/07/05 03:13:30;;;;;;;2.67;1.35;;;17.10;99.90;;;;;;5048601;22;20049;-73
2023/07/05 03:15:57;;;;;;;1.77;1.10;;;17.10;99.90;;;;;;5051349;28;20109;-73
2023/07/05 03:18:24;;;;;;;2.90;1.23;;;17.10;99.90;;;;;;5050536;28;20102;-73
2023/07/05 03:20:50;;;;;;;3.15;1.15;;;17.10;99.90;;;;;;5062633;28;20037;-73
2023/07/05 03:23:16;;;;;;;1.45;0.82;;;17.10;99.90;;;;;;5028149;28;20415;-73
2023/07/05 03:26:10;;;;;;;3.20;1.10;;;17.10;99.90;;;;;;5025236;28;20037;-73
2023/07/05 03:28:37;;;;;;;2.38;1.00;;;17.10;99.90;;;;;;5030132;28;20048;-73
2023/07/05 03:31:10;;;;;;;1.25;0.77;;;17.10;99.90;;;;;;5031275;28;20116;-74
2023/07/05 03:33:37;;;;;;;2.50;1.58;;;17.20;99.90;;;;;;5029975;28;20029;-72
2023/07/05 03:36:05;;;;;;;3.15;1.45;;;17.30;99.90;;;;;;5030854;28;20030;-72
2023/07/05 03:38:33;;;;;;;3.72;1.42;;;17.30;99.90;;;;;;5021775;28;20041;-72
2023/07/05 03:41:15;;;;;;;3.70;1.20;;;17.30;99.90;;;;;;5026780;28;20458;-73
2023/07/05 03:43:43;;;;;;;2.38;1.05;;;17.40;99.90;;;;;;5017047;28;20037;-72
2023/07/05 03:46:12;;;;;;;2.20;0.80;;;17.50;99.90;;;;;;5011232;28;20029;-72
2023/07/05 03:48:42;;;;;;;3.67;1.77;;;17.50;99.90;;;;;;5029203;28;20044;-72
2023/07/05 03:51:12;;;;;;;2.33;0.90;;;17.60;99.90;;;;;;5028625;28;20124;-72
2023/07/05 03:53:38;;;;;;;2.05;1.10;;;17.60;99.90;;;;;;5029815;28;20096;-72
2023/07/05 03:56:08;;;;;;;5.90;1.48;;;17.70;99.90;;;;;;5027608;28;20033;-72
2023/07/05 03:58:34;;;;;;;3.08;1.20;;;17.80;99.90;;;;;;5040251;28;20041;-71
2023/07/05 04:01:24;;;;;;;1.77;0.90;;;17.80;99.90;;;;;;5027157;28;20036;-70
2023/07/05 04:03:54;;;;;;;3.25;0.95;;;17.80;99.90;;;;;;5012244;28;20443;-70
2023/07/05 04:06:22;;;;;;;4.50;0.90;;;17.90;99.90;;;;;;5028024;28;20100;-72
2023/07/05 04:08:48;;;;;;;4.15;0.68;;;18.00;99.90;;;;;;5015649;28;20532;-69
2023/07/05 04:11:14;;;;;;;2.35;1.13;;;18.00;99.90;;;;;;5030271;28;20443;-72
2023/07/05 04:13:40;;;;;;;1.38;1.00;;;18.10;99.90;;;;;;5020517;28;20074;-71
2023/07/05 04:16:11;;;;;;;6.50;0.80;;;18.20;99.90;;;;;;5014461;28;20045;-71
2023/07/05 04:18:38;;;;;;;1.58;0.77;;;18.20;99.90;;;;;;5026926;28;20560;-71
2023/07/05 04:21:05;;;;;;;1.38;0.82;;;18.20;99.90;;;;;;5027062;28;20068;-72
2023/07/05 04:23:30;;;;;;;4.88;0.82;;;18.30;99.90;;;;;;5029761;28;20029;-72
2023/07/05 04:26:09;;;;;;;5.03;1.02;;;18.30;99.90;;;;;;5030342;28;20087;-72
2023/07/05 04:28:37;;;;;;;1.42;0.73;;;18.40;99.90;;;;;;4991787;28;20052;-72
2023/07/05 04:31:03;;;;;;;1.67;0.82;;;18.40;99.90;;;;;;5020042;28;20106;-72
2023/07/05 04:33:29;;;;;;;3.85;0.80;;;18.40;99.90;;;;;;5017510;28;20643;-72
2023/07/05 04:35:57;;;;;;;4.13;1.52;;;18.50;99.90;;;;;;5019369;28;20124;-72
2023/07/05 04:38:24;;;;;;;3.58;1.10;;;18.50;99.90;;;;;;5000420;28;20041;-72
2023/07/05 04:40:50;;;;;;;6.00;1.20;;;18.60;99.90;;;;;;5020991;28;20037;-73
2023/07/05 04:43:16;;;;;;;1.85;0.80;;;18.60;99.90;;;;;;5020958;28;20091;-72
2023/07/05 04:45:51;;;;;;;2.85;0.52;;;18.70;99.90;;;;;;5023158;28;20069;-71
2023/07/05 04:48:18;;;;;;;1.60;0.90;;;18.60;99.90;;;;;;5022833;28;20034;-70
2023/07/05 04:50:44;;;;;;;4.07;0.98;;;18.70;99.90;;;;;;5022593;28;20588;-68
2023/07/05 04:53:10;;;;;;;0.88;0.73;;;18.80;99.90;;;;;;5023769;28;20105;-69
2023/07/05 04:55:36;;;;;;;1.55;0.73;;;18.90;99.90;;;;;;5017465;28;20121;-70
2023/07/05 04:58:03;;;;;;;1.40;0.88;;;18.90;99.90;;;;;;5024336;28;20477;-69
2023/07/05 05:00:30;;;;;;;1.13;0.73;;;18.90;99.90;;;;;;5021193;28;20091;-72
2023/07/05 05:02:56;;;;;;;3.30;0.93;;;18.90;99.90;;;;;;5001193;28;20030;-71
2023/07/05 05:05:22;;;;;;;2.80;0.88;;;18.80;99.90;;;;;;5001887;28;20026;-71
2023/07/05 05:07:48;;;;;;;1.80;0.90;;;18.80;99.90;;;;;;5030862;28;20052;-71
2023/07/05 05:10:13;;;;;;;4.38;2.33;;;18.80;99.90;;;;;;5017982;28;20084;-71
2023/07/05 05:12:39;;;;;;;1.77;0.70;;;18.80;99.90;;;;;;5028750;28;20037;-71
2023/07/05 05:15:05;;;;;;;2.65;0.90;;;18.70;99.90;;;;;;4999292;28;20049;-70
2023/07/05 05:17:31;;;;;;;1.15;0.57;;;18.80;99.90;;;;;;5001400;28;20033;-73
2023/07/05 05:19:57;;;;;;;2.83;1.08;;;18.80;99.90;;;;;;4999635;28;20505;-74
2023/07/05 05:22:23;;;;;;;1.42;0.70;;;18.80;99.90;;;;;;5003918;28;20537;-72
2023/07/05 05:24:48;;;;;;;1.15;0.80;;;18.80;99.90;;;;;;5019618;28;20508;-71
2023/07/05 05:27:14;;;;;;;3.75;0.73;;;18.70;99.90;;;;;;5028593;28;20044;-71
2023/07/05 05:29:40;;;;;;;3.10;0.55;;;18.70;99.90;;;;;;5019814;28;20505;-69
2023/07/05 05:32:06;;;;;;;2.25;0.95;;;18.60;99.90;;;;;;5020352;28;20556;-72
2023/07/05 05:34:32;;;;;;;5.93;1.17;;;18.50;99.90;;;;;;5020561;28;20029;-69
2023/07/05 05:36:58;;;;;;;1.35;0.77;;;18.50;99.90;;;;;;5020376;28;20393;-74
2023/07/05 05:39:24;;;;;;;3.95;1.10;;;18.50;99.90;;;;;;5022281;28;20098;-72
2023/07/05 05:41:50;;;;;;;4.60;1.50;;;18.40;99.90;;;;;;5001682;28;20431;-74
2023/07/05 05:44:16;;;;;;;2.08;0.85;;;17.60;99.90;;;;;;5002848;28;20029;-77
2023/07/05 05:46:41;;;;;;;4.20;1.23;;;16.90;99.90;;;;;;4996993;28;20682;-77
2023/07/05 05:49:07;;;;;;;4.05;1.52;;;16.30;99.90;;;;;;4997742;28;20034;-78
2023/07/05 05:51:33;;;;;;;2.20;1.13;;;15.90;99.90;;;;;;5021299;28;20033;-77
2023/07/05 05:53:59;;;;;;;3.40;1.30;;;15.70;99.90;;;;;;5020581;28;20405;-77
2023/07/05 05:56:25;;;;;;;4.13;1.73;;;15.50;99.90;;;;;;5020550;28;20033;-77
2023/07/05 05:58:50;;;;;;;3.70;1.40;;;15.60;99.90;;;;;;5003842;28;20040;-80
2023/07/05 06:01:18;;;;;;;2.47;1.00;;;15.70;99.90;;;;;;5020625;28;20123;-79
2023/07/05 06:03:44;;;;;;;3.17;1.27;;;15.80;99.90;;;;;;5001867;28;20124;-78
2023/07/05 06:06:10;;;;;;;2.17;1.13;;;16.00;99.90;;;;;;5019635;28;20034;-77
2023/07/05 06:08:35;;;;;;;5.10;1.27;;;16.00;99.90;;;;;;5020387;28;20670;-77
2023/07/05 06:11:04;;;;;;;3.88;1.50;;;16.10;99.90;;;;;;5021074;28;20091;-77
2023/07/05 06:13:31;;;;;;;3.15;1.15;;;16.30;99.90;;;;;;5016790;28;20029;-78
2023/07/05 06:16:00;;;;;;;11.60;1.20;;;16.40;99.90;;;;;;4999676;28;20025;-79
2023/07/05 06:18:27;;;;;;;3.15;1.30;;;16.40;99.90;;;;;;5017214;28;20044;-77
2023/07/05 06:20:53;;;;;;;3.25;1.10;;;16.50;99.90;;;;;;5013031;28;20052;-77
2023/07/05 06:23:20;;;;;;;5.95;1.15;;;16.50;99.90;;;;;;5032123;28;20033;-77
2023/07/05 06:25:50;;;;;;;4.18;1.20;;;16.60;99.90;;;;;;5017772;28;20052;-76
2023/07/05 06:28:17;;;;;;;2.30;1.33;;;16.60;99.90;;;;;;5003876;28;20044;-83
2023/07/05 06:30:46;;;;;;;3.03;1.38;;;16.80;99.90;;;;;;5019856;28;20030;-82
2023/07/05 06:33:14;;;;;;;3.65;1.08;;;16.80;99.90;;;;;;5023879;28;20053;-82
2023/07/05 06:35:40;;;;;;;1.67;0.60;;;16.80;99.90;;;;;;5001663;28;20026;-79
2023/07/05 06:38:06;;;;;;;5.97;1.55;;;16.90;99.90;;;;;;5035139;28;20021;-81
2023/07/05 06:40:32;;;;;;;3.65;2.08;;;16.90;99.90;;;;;;5029521;28;20071;-80
2023/07/05 06:42:58;;;;;;;1.65;1.00;;;16.90;99.90;;;;;;5023264;28;20480;-80
2023/07/05 06:45:24;;;;;;;3.42;1.40;;;16.90;99.90;;;;;;5028372;28;20033;-77
2023/07/05 06:47:50;;;;;;;4.32;1.48;;;16.90;99.90;;;;;;5010195;28;20037;-77
2023/07/05 06:50:16;;;;;;;3.40;1.33;;;17.00;99.90;;;;;;5015877;28;20037;-76
2023/07/05 06:52:42;;;;;;;4.68;1.77;;;17.00;99.90;;;;;;5011805;28;20025;-75
2023/07/05 06:55:11;;;;;;;2.50;1.30;;;17.00;99.90;;;;;;4996853;28;20604;-75
2023/07/05 06:57:36;;;;;;;3.95;1.30;;;17.00;99.90;;;;;;5030172;28;20017;-76
2023/07/05 07:00:09;;;;;;;2.65;1.30;;;17.10;99.90;;;;;;5030618;28;20052;-76
2023/07/05 07:02:35;;;;;;;3.10;1.35;;;17.30;99.90;;;;;;5024473;28;20167;-76
2023/07/05 07:05:01;;;;;;;5.28;2.00;;;17.30;99.90;;;;;;5029837;28;20171;-76
2023/07/05 07:07:27;;;;;;;5.65;1.95;;;17.30;99.90;;;;;;4999474;28;20495;-76
2023/07/05 07:09:53;;;;;;;2.85;1.55;;;17.40;99.90;;;;;;5012818;28;20869;-75
2023/07/05 07:12:19;;;;;;;3.10;1.40;;;17.50;99.90;;;;;;5037877;28;20033;-76
2023/07/05 07:14:44;;;;;;;3.60;1.38;;;17.50;99.90;;;;;;5030062;28;20500;-76
2023/07/05 07:17:10;;;;;;;7.82;2.92;;;17.70;99.90;;;;;;5030871;28;20018;-76
2023/07/05 07:19:36;;;;;;;2.60;1.20;;;17.90;99.90;;;;;;5030149;28;20122;-76
2023/07/05 07:22:02;;;;;;;3.83;1.48;;;17.90;99.90;;;;;;5030256;28;20548;-76
2023/07/05 07:24:30;;;;;;;5.45;1.88;;;18.00;99.90;;;;;;5029631;28;20025;-76
2023/07/05 07:26:56;;;;;;;4.80;1.92;;;18.00;99.90;;;;;;5030093;28;20664;-75
2023/07/05 07:29:22;;;;;;;7.22;1.65;;;18.00;99.90;;;;;;5031042;28;20065;-75
2023/07/05 07:31:48;;;;;;;3.78;1.70;;;18.20;99.90;;;;;;5022024;28;20119;-74
2023/07/05 07:34:14;;;;;;;5.40;1.30;;;18.30;99.90;;;;;;5010421;28;20045;-73
2023/07/05 07:36:40;;;;;;;4.50;2.00;;;18.20;99.90;;;;;;5016853;28;20033;-73
2023/07/05 07:39:06;;;;;;;3.55;1.23;;;18.00;99.90;;;;;;4979192;28;20041;-73
2023/07/05 07:41:37;;;;;;;3.38;1.40;;;17.80;99.90;;;;;;5016207;28;20033;-73
2023/07/05 07:44:07;;;;;;;3.95;1.83;;;17.80;99.90;;;;;;5027520;28;20176;-74
2023/07/05 07:46:34;;;;;;;4.22;1.58;;;17.90;99.90;;;;;;5030308;28;20104;-74
2023/07/05 07:49:02;;;;;;;4.45;2.22;;;18.00;99.90;;;;;;5027454;28;20033;-74
2023/07/05 07:51:32;;;;;;;3.90;1.75;;;18.00;99.90;;;;;;5022001;28;20022;-74
2023/07/05 07:53:58;;;;;;;4.00;1.70;;;18.00;99.90;;;;;;4996143;28;20448;-75
2023/07/05 07:56:26;;;;;;;2.60;1.38;;;18.00;99.90;;;;;;5024446;28;20096;-74
2023/07/05 07:58:55;;;;;;;3.35;1.50;;;18.20;99.90;;;;;;5025919;28;20029;-74
2023/07/05 08:01:33;;;;;;;2.22;1.13;;;18.20;99.90;;;;;;5021195;28;20037;-75
2023/07/05 08:04:02;;;;;;;4.07;1.95;;;18.40;99.90;;;;;;5027614;28;20037;-75
2023/07/05 08:06:42;;;;;;;3.85;1.70;;;18.40;99.90;;;;;;5020370;28;20033;-75
2023/07/05 08:09:12;;;;;;;4.43;1.40;;;18.20;99.90;;;;;;5025134;28;20558;-75
2023/07/05 08:11:41;;;;;;;5.43;1.20;;;18.20;99.90;;;;;;5029922;28;20504;-75
2023/07/05 08:14:09;;;;;;;4.00;1.60;;;18.40;99.90;;;;;;5030299;28;20157;-75
2023/07/05 08:16:35;;;;;;;3.90;1.42;;;18.30;99.90;;;;;;5029960;28;20485;-75
2023/07/05 08:19:01;;;;;;;4.50;1.45;;;18.30;99.90;;;;;;5030560;28;20033;-75
2023/07/05 08:21:27;;;;;;;5.35;1.55;;;18.40;99.90;;;;;;5030141;28;20489;-75
2023/07/05 08:23:53;;;;;;;4.80;1.95;;;18.30;99.90;;;;;;5025756;28;20052;-75
2023/07/05 08:26:19;;;;;;;4.18;1.90;;;18.30;99.90;;;;;;5030088;28;20515;-74
2023/07/05 08:28:45;;;;;;;4.40;1.80;;;18.40;99.90;;;;;;5030388;28;20053;-75
2023/07/05 08:31:11;;;;;;;2.08;1.23;;;18.50;99.90;;;;;;5029445;28;20056;-75
2023/07/05 08:33:37;;;;;;;3.80;1.58;;;18.50;99.90;;;;;;5014673;28;20486;-75
2023/07/05 08:36:12;;;;;;;6.03;1.90;;;18.50;99.90;;;;;;5021531;28;20025;-75
2023/07/05 08:38:54;;;;;;;4.95;1.30;;;18.50;99.90;;;;;;5030563;28;20041;-75
2023/07/05 08:41:33;;;;;;;6.97;2.15;;;18.50;99.90;;;;;;5022031;28;20030;-75
2023/07/05 08:44:27;;;;;;;4.28;1.60;;;18.40;99.90;;;;;;4995004;28;20042;-75
2023/07/05 08:47:00;;;;;;;3.33;1.58;;;18.40;99.90;;;;;;5027523;28;20041;-75
2023/07/05 08:49:45;;;;;;;5.85;1.65;;;18.20;99.90;;;;;;5029322;28;20116;-74
2023/07/05 08:52:29;;;;;;;2.20;0.98;;;18.10;99.90;;;;;;5016386;28;20066;-75
2023/07/05 08:55:00;;;;;;;4.80;1.30;;;18.20;99.90;;;;;;5010983;28;20034;-74
2023/07/05 08:57:39;;;;;;;2.53;1.15;;;18.30;99.90;;;;;;5015321;28;20033;-74
2023/07/05 09:00:12;;;;;;;1.98;1.02;;;18.00;99.90;;;;;;5012536;28;20029;-74
2023/07/05 09:02:39;;;;;;;2.92;1.05;;;18.00;99.90;;;;;;4999260;28;20033;-74
2023/07/05 09:05:30;;;;;;;4.57;1.60;;;18.10;99.90;;;;;;5029524;28;20025;-75
2023/07/05 09:08:23;;;;;;;2.22;1.23;;;18.20;99.90;;;;;;5020463;28;20439;-74
2023/07/05 09:11:20;;;;;;;3.40;1.00;;;18.40;99.90;;;;;;5015661;28;20107;-75
2023/07/05 09:13:46;;;;;;;3.45;1.10;;;18.40;99.90;;;;;;5024758;22;20546;-74
2023/07/05 09:16:29;;;;;;;1.70;1.15;;;18.50;99.90;;;;;;5024147;28;20049;-74
2023/07/05 09:19:32;;;;;;;8.13;1.20;;;18.40;99.90;;;;;;5018939;28;20052;-74
2023/07/05 09:22:04;;;;;;;3.25;1.05;;;18.50;99.90;;;;;;5022372;28;20028;-74
2023/07/05 09:24:39;;;;;;;2.28;0.90;;;18.70;99.90;;;;;;5000721;28;20044;-74
2023/07/05 09:27:17;;;;;;;3.65;1.20;;;18.80;99.90;;;;;;5058151;28;20073;-74
2023/07/05 09:29:49;;;;;;;3.63;1.27;;;18.60;99.90;;;;;;5052120;28;20041;-74
2023/07/05 09:32:19;;;;;;;3.60;1.30;;;18.70;99.90;;;;;;5042501;28;20032;-74
2023/07/05 09:34:50;;;;;;;2.57;0.97;;;18.90;99.90;;;;;;5031311;28;20022;-74
2023/07/05 09:37:25;;;;;;;3.75;1.85;;;18.80;99.90;;;;;;5043124;28;20021;-75
2023/07/05 09:40:20;;;;;;;4.05;1.92;;;18.80;99.90;;;;;;5048796;28;20658;-73
2023/07/05 09:43:03;;;;;;;4.53;1.75;;;18.80;99.70;;;;;;5036572;28;20106;-74
2023/07/05 09:45:29;;;;;;;2.80;0.93;;;18.90;99.90;;;;;;5036213;28;20029;-74
2023/07/05 09:48:05;;;;;;;3.70;1.08;;;18.80;99.40;;;;;;5044621;28;20033;-74
2023/07/05 09:50:32;;;;;;;5.78;1.40;;;18.70;99.90;;;;;;5048704;28;20028;-74
2023/07/05 09:53:38;;;;;;;4.53;1.10;;;18.60;99.90;;;;;;5033910;28;20044;-74
2023/07/05 09:56:13;;;;;;;3.05;1.10;;;19.00;99.90;;;;;;5040043;28;20132;-74
2023/07/05 09:58:43;;;;;;;5.00;1.23;;;18.90;99.40;;;;;;5031692;28;20444;-74
2023/07/05 10:01:22;;;;;;;1.92;0.98;;;19.10;99.90;;;;;;5032589;28;20476;-74
2023/07/05 10:03:56;;;;;;;3.75;1.23;;;19.20;99.40;;;;;;5028564;28;20032;-75
2023/07/05 10:06:28;;;;;;;2.17;0.88;;;19.60;99.70;;;;;;5028570;28;20029;-75
2023/07/05 10:08:56;;;;;;;1.73;0.95;;;19.70;97.30;;;;;;5048084;28;20033;-74
2023/07/05 10:11:35;;;;;;;1.98;0.77;;;19.90;97.90;;;;;;5031956;28;20095;-75
2023/07/05 10:14:05;;;;;;;4.03;1.10;;;19.80;96.80;;;;;;5037373;28;20036;-74
2023/07/05 10:16:56;;;;;;;3.50;1.33;;;19.90;96.60;;;;;;5046054;28;20029;-74
2023/07/05 10:19:48;;;;;;;2.20;0.77;;;19.60;95.80;;;;;;5042731;28;20033;-75
2023/07/05 10:22:21;;;;;;;3.88;1.25;;;19.80;93.60;;;;;;5052017;28;20778;-74
2023/07/05 10:24:57;;;;;;;3.75;0.88;;;20.00;94.40;;;;;;5038176;28;20052;-73
2023/07/05 10:27:36;;;;;;;3.38;1.17;;;20.00;94.00;;;;;;5012005;28;20049;-74
2023/07/05 10:30:09;;;;;;;3.38;1.55;;;19.80;92.60;;;;;;5038451;28;20065;-74
2023/07/05 10:32:36;;;;;;;2.65;1.48;;;19.90;93.00;;;;;;5011353;28;20032;-74
2023/07/05 10:35:09;;;;;;;6.03;1.08;;;20.00;92.80;;;;;;5039855;28;20367;-74
2023/07/05 10:37:38;;;;;;;3.15;1.00;;;19.90;92.60;;;;;;5049339;28;20033;-74
2023/07/05 10:40:10;;;;;;;2.40;0.80;;;20.00;93.40;;;;;;5040143;28;20033;-74
2023/07/05 10:42:41;;;;;;;2.88;0.80;;;19.90;93.00;;;;;;5048386;28;20036;-74
2023/07/05 10:45:15;;;;;;;;;;;19.90;93.10;;;;;;5039976;28;20029;-74
2023/07/05 10:47:45;;;;;;;1.55;0.82;;;20.00;93.50;;;;;;5031005;28;19936;-74
2023/07/05 10:50:14;;;;;;;1.92;0.98;;;19.90;90.90;;;;;;5040347;28;20096;-74
2023/07/05 10:52:55;;;;;;;7.95;1.13;;;20.10;91.20;;;;;;5030499;28;20040;-74
2023/07/05 10:55:40;;;;;;;2.67;0.90;;;20.40;92.00;;;;;;5031209;28;20068;-74
2023/07/05 10:58:20;;;;;;;2.33;1.23;;;20.40;90.30;;;;;;5015057;28;20044;-74
2023/07/05 11:01:04;;;;;;;2.50;1.00;;;20.40;89.80;;;;;;5034607;28;20108;-74
2023/07/05 11:03:47;;;;;;;2.15;1.00;;;20.30;90.50;;;;;;5022728;28;20029;-74
2023/07/05 11:06:16;;;;;;;2.83;1.30;;;20.70;90.70;;;;;;5042296;28;20551;-73
2023/07/05 11:08:47;;;;;;;3.30;1.67;;;21.10;90.30;;;;;;5043735;28;20490;-73
2023/07/05 11:11:30;;;;;;;5.35;1.23;;;21.10;85.90;;;;;;5042122;28;20468;-73
2023/07/05 11:14:03;;;;;;;2.63;0.70;;;21.10;86.70;;;;;;5042642;28;20040;-73
2023/07/05 11:16:30;;;;;;;2.38;1.00;;;21.20;84.30;;;;;;5043426;28;20029;-73
2023/07/05 11:19:06;;;;;;;1.35;0.63;;;21.20;79.90;;;;;;5059178;28;20487;-74
2023/07/05 11:21:46;;;;;;;2.35;0.63;;;21.30;81.00;;;;;;5043944;28;20058;-74
2023/07/05 11:24:30;;;;;;;1.55;0.82;;;21.10;79.80;;;;;;5040393;28;20033;-74
2023/07/05 11:26:58;;;;;;;2.10;0.77;;;21.00;80.80;;;;;;5048632;28;20045;-74
2023/07/05 11:29:32;;;;;;;2.58;1.00;;;21.00;79.70;;;;;;5040237;28;20037;-74
2023/07/05 11:32:08;;;;;;;2.88;1.30;;;20.90;84.10;;;;;;5020246;28;20025;-75
2023/07/05 11:34:48;;;;;;;4.63;0.80;;;21.10;82.80;;;;;;5033644;28;20029;-73
2023/07/05 11:37:13;;;;;;;2.83;0.80;;;21.20;80.30;;;;;;5050618;28;20146;-73
2023/07/05 11:39:40;;;;;;;2.70;1.05;;;21.50;81.10;;;;;;5038030;28;20072;-74
2023/07/05 11:42:15;;;;;;;1.35;0.82;;;21.70;80.30;;;;;;5049601;28;20044;-74
2023/07/05 11:44:49;;;;;;;1.63;0.90;;;21.70;77.70;;;;;;5036641;28;20075;-73
2023/07/05 11:47:24;;;;;;;2.45;0.85;;;21.70;77.90;;;;;;5049478;28;20032;-74
2023/07/05 11:50:02;;;;;;;1.25;0.57;;;22.00;80.10;;;;;;5036238;28;20064;-74
2023/07/05 11:52:30;;;;;;;1.45;0.63;;;22.40;75.20;;;;;;5025995;28;20375;-74
2023/07/05 11:55:30;;;;;;;1.35;0.68;;;22.00;73.90;;;;;;5035785;28;20072;-74
2023/07/05 11:58:16;;;;;;;1.33;0.50;;;22.10;71.80;;;;;;5039256;28;20512;-74
2023/07/05 12:01:00;;;;;;;2.75;1.10;;;22.10;71.60;;;;;;5015199;28;20048;-74
2023/07/05 12:03:30;;;;;;;3.40;1.02;;;22.00;72.20;;;;;;5018811;28;20061;-74
2023/07/05 12:06:09;;;;;;;1.23;0.75;;;22.10;71.70;;;;;;5041210;28;20091;-74
2023/07/05 12:08:46;;;;;;;2.25;0.70;;;21.90;71.10;;;;;;5043616;28;20029;-75
2023/07/05 12:11:14;;;;;;;1.63;0.63;;;22.10;71.60;;;;;;5041203;28;20507;-75
2023/07/05 12:13:41;;;;;;;1.52;0.70;;;22.40;69.40;;;;;;5045117;28;20069;-73
2023/07/05 12:16:15;;;;;;;1.45;0.55;;;22.40;69.50;;;;;;5042469;28;20147;-74
2023/07/05 12:18:41;;;;;;;1.90;0.80;;;22.60;68.90;;;;;;5043913;28;20492;-73
2023/07/05 12:21:07;;;;;;;2.25;0.80;;;22.30;69.20;;;;;;5037068;28;20044;-74
2023/07/05 12:23:36;;;;;;;2.47;0.70;;;22.60;70.50;;;;;;5043286;28;20044;-73
2023/07/05 12:26:24;;;;;;;1.63;0.68;;;22.60;68.70;;;;;;5040972;28;20761;-73
2023/07/05 12:28:51;;;;;;;1.45;0.90;;;23.00;70.70;;;;;;5043878;28;20124;-74
2023/07/05 12:31:22;;;;;;;8.98;0.85;;;23.30;66.90;;;;;;5025179;28;20077;-73
2023/07/05 12:33:57;;;;;;;1.35;0.77;;;23.00;66.70;;;;;;5024206;28;20064;-74
2023/07/05 12:36:24;;;;;;;1.80;0.68;;;22.70;65.60;;;;;;5041803;28;20025;-74
2023/07/05 12:39:06;;;;;;;0.60;0.47;;;22.80;67.10;;;;;;5045162;28;20041;-73
2023/07/05 12:41:32;;;;;;;1.85;0.98;;;23.10;67.00;;;;;;5036826;28;20025;-73
2023/07/05 12:44:05;;;;;;;2.85;0.60;;;23.10;65.10;;;;;;5042806;28;20425;-74
2023/07/05 12:46:33;;;;;;;1.25;0.60;;;23.30;65.30;;;;;;5042624;28;20039;-74
2023/07/05 12:49:20;;;;;;;2.70;0.80;;;23.30;65.20;;;;;;5024990;28;20416;-73
2023/07/05 12:51:55;;;;;;;1.88;0.95;;;23.60;66.20;;;;;;5061747;28;20057;-73
2023/07/05 12:54:22;;;;;;;3.72;0.77;;;23.70;65.30;;;;;;5038126;28;20104;-73
2023/07/05 12:56:51;;;;;;;2.60;0.85;;;23.50;64.80;;;;;;5047305;28;20032;-74
2023/07/05 12:59:32;;;;;;;2.63;0.70;;;23.20;64.80;;;;;;5045174;28;20029;-74
2023/07/05 13:02:03;;;;;;;5.05;0.75;;;23.00;66.70;;;;;;5021619;28;20116;-74
2023/07/05 13:04:30;;;;;;;1.90;0.77;;;23.20;66.30;;;;;;5035478;28;20037;-73
2023/07/05 13:06:57;;;;;;;1.77;0.70;;;23.30;66.40;;;;;;5051024;28;20033;-73
2023/07/05 13:09:36;;;;;;;1.85;0.38;;;23.40;65.80;;;;;;5044331;28;20041;-73
2023/07/05 13:12:08;;;;;;;2.80;0.80;;;23.60;64.70;;;;;;5050197;28;20476;-73